Hovedside
METAR-TAF:

METAR-TAF

Lufthavner :

Kalmar, Sverige

Kalmar lufthavn

breddegrad: 56-44N, lengdegrad: 016-18E, høyde over havet: 16 m

Gjeldene værobservasjon

Denne rapporten ble laget for 32 minutter siden, klokken 20:20 UTC
Vind 6 kt fra Vest-nordvest
Temperatur 9°C
Luftfuktighet 53%
Trykk 1021 hPa
Sikt 10 km eller mer
ingen skyer under 1500 m og ingen bygeskyer

METAR: ESMQ 262020Z 30006KT CAVOK 09/M00 Q1021

Tid: 22:52 (20:52 UTC)

Varsel

Denne rapporten ble laget for 22 minutter siden, klokken 20:30 UTC
Varsel gyldig fra 26. klokken 21 UTC til 26. klokken 23 UTC
Vind 8 kt fra Vest-nordvest
Sikt 10 km eller mer
ingen skyer under 1500 m og ingen bygeskyer

TAF: ESMQ 262030Z 2621/2623 29008KT CAVOK

Værobservasjoner og værvarsel for over 4000 flyplasser (METAR- og TAF-rapporter).

Tilgjengelige stasjoner er representert av de røde og gule prikkene på kartet.

Hold musepekeren over prikken for å se navnet på stasjonen.

Klikk så for å se værobservasjoner og -varsler.

For å forandre kartet kan du klikke på den grønne knappen med svart kryss for å zoome inn, på den grønne knappen med strek for å zoome ut, eller på de grønne pilene for å se tilstøtende kart.


METAR-TAF: